Terminal Aerodrome Forecast
Issued by NWS Green Bay, WI

Home | Current Version | Previous Version | Text Only | Print | Product List | Glossary On
Versions: 1 2 3 4 5 6 7 8 9 10 11 12 13 14 15 16 17 18 19 20 21 22 23 24 25 26 27 28 29 30 31 32 33 34 35 36 37 38 39 40 41 42 43 44 45 46 47 48
000
FTUS43 KGRB 271700
TAFGRB
TAF
KGRB 271736Z 2718/2818 33008G16KT P6SM SCT050
     FM272300 29003KT P6SM SCT250
     FM280600 VRB03KT P6SM OVC080
     FM281300 18007KT 5SM -SN BR OVC030
     FM281600 18007KT 2SM -SN BR OVC015=

USA.gov is the U.S. government's official web portal to all federal, state and local government web resources and services.